Time;durP1;ratioP1;P1;durP2;ratioP2;P2;SDS_P1;SDS_P2;PMS_P1;PMS_P2;Temp;Humidity;BMP_temperature;BMP_pressure;BME280_temperature;BME280_humidity;BME280_pressure;Samples;Min_cycle;Max_cycle;Signal;HPM_P1;HPM_P2
2023/01/03 00:00:49;;;;;;;13.63;2.80;;;6.60;99.90;;;;;;4953271;29;20445;-49
2023/01/03 00:03:16;;;;;;;9.40;2.83;;;6.60;99.90;;;;;;4941680;29;20567;-50
2023/01/03 00:05:48;;;;;;;9.30;2.90;;;6.60;99.90;;;;;;4941023;29;20504;-54
2023/01/03 00:08:14;;;;;;;15.10;2.50;;;6.60;99.90;;;;;;4949574;29;20441;-50
2023/01/03 00:10:41;;;;;;;14.20;3.10;;;6.60;99.90;;;;;;4937211;29;20469;-52
2023/01/03 00:13:07;;;;;;;14.10;3.27;;;6.60;99.90;;;;;;4942114;28;20445;-50
2023/01/03 00:15:37;;;;;;;9.27;3.00;;;6.50;99.90;;;;;;4947753;28;20508;-50
2023/01/03 00:18:03;;;;;;;9.30;3.00;;;6.50;99.90;;;;;;4952689;28;20927;-50
2023/01/03 00:20:29;;;;;;;7.47;2.70;;;6.40;99.90;;;;;;4948836;28;20456;-49
2023/01/03 00:22:54;;;;;;;4.53;2.20;;;6.40;99.90;;;;;;4944421;28;20493;-49
2023/01/03 00:25:20;;;;;;;6.53;2.90;;;6.30;99.90;;;;;;4949414;28;20190;-49
2023/01/03 00:27:46;;;;;;;5.17;2.80;;;6.30;99.90;;;;;;4952479;29;20285;-49
2023/01/03 00:30:12;;;;;;;12.47;2.80;;;6.20;99.90;;;;;;4948054;29;20276;-49
2023/01/03 00:32:37;;;;;;;17.97;3.63;;;6.20;99.90;;;;;;4952044;29;20648;-49
2023/01/03 00:35:03;;;;;;;5.10;2.30;;;6.20;99.90;;;;;;4941475;28;20485;-49
2023/01/03 00:37:29;;;;;;;7.90;2.50;;;6.10;99.90;;;;;;4946972;29;20190;-49
2023/01/03 00:39:54;;;;;;;8.63;2.70;;;6.10;99.90;;;;;;4948783;29;20449;-50
2023/01/03 00:42:20;;;;;;;9.80;2.90;;;6.10;99.90;;;;;;4953819;29;20237;-49
2023/01/03 00:44:46;;;;;;;9.93;2.70;;;6.20;99.90;;;;;;4945402;28;20206;-49
2023/01/03 00:47:11;;;;;;;7.17;3.20;;;6.20;99.90;;;;;;4948984;29;20214;-50
2023/01/03 00:49:37;;;;;;;11.43;2.90;;;6.20;99.90;;;;;;4947866;29;20189;-50
2023/01/03 00:52:04;;;;;;;7.30;3.00;;;6.20;99.90;;;;;;4953742;29;20229;-49
2023/01/03 00:54:30;;;;;;;10.73;2.93;;;6.20;99.90;;;;;;4942043;28;20189;-50
2023/01/03 00:56:55;;;;;;;5.93;2.57;;;6.20;99.90;;;;;;4951866;28;20800;-49
2023/01/03 00:59:21;;;;;;;9.53;2.73;;;6.20;99.90;;;;;;4945970;28;20194;-49
2023/01/03 01:01:53;;;;;;;8.03;2.30;;;6.20;99.90;;;;;;4953040;29;20200;-49
2023/01/03 01:04:20;;;;;;;13.13;2.60;;;6.20;99.90;;;;;;4950995;28;20449;-49
2023/01/03 01:06:48;;;;;;;5.17;2.77;;;6.20;99.90;;;;;;4953563;28;20441;-49
2023/01/03 01:09:17;;;;;;;8.60;2.20;;;6.20;99.90;;;;;;4947613;28;20762;-49
2023/01/03 01:11:43;;;;;;;7.80;2.40;;;6.20;99.90;;;;;;4935831;29;20437;-49
2023/01/03 01:14:18;;;;;;;10.27;2.63;;;6.10;99.90;;;;;;4943623;28;20443;-49
2023/01/03 01:16:47;;;;;;;10.17;2.60;;;6.10;99.90;;;;;;4951099;29;20197;-49
2023/01/03 01:19:12;;;;;;;13.97;2.40;;;6.10;99.90;;;;;;4953704;28;20410;-49
2023/01/03 01:21:38;;;;;;;14.37;3.37;;;6.10;99.90;;;;;;4940812;29;22265;-49
2023/01/03 01:24:03;;;;;;;4.33;2.30;;;6.00;99.90;;;;;;4945110;29;20198;-49
2023/01/03 01:26:29;;;;;;;10.77;2.70;;;5.90;99.90;;;;;;4944515;28;20312;-49
2023/01/03 01:28:55;;;;;;;8.53;2.90;;;5.90;99.90;;;;;;4953554;29;20178;-49
2023/01/03 01:31:23;;;;;;;6.73;3.07;;;5.90;99.90;;;;;;4945362;29;20720;-50
2023/01/03 01:33:50;;;;;;;8.87;3.23;;;5.90;99.90;;;;;;4936722;28;20205;-49
2023/01/03 01:36:25;;;;;;;10.33;2.83;;;5.80;99.90;;;;;;4948244;29;20646;-50
2023/01/03 01:39:03;;;;;;;6.87;3.10;;;5.80;1.00;;;;;;4937010;29;20447;-50
2023/01/03 01:44:52;;;;;;;7.47;2.87;;;5.70;1.00;;;;;;4944567;28;20463;-49
2023/01/03 01:47:26;;;;;;;9.07;3.43;;;5.80;1.00;;;;;;4937969;29;20563;-50
2023/01/03 01:50:23;;;;;;;9.53;3.50;;;5.60;1.00;;;;;;4935431;29;20438;-49
2023/01/03 01:53:09;;;;;;;7.27;3.03;;;5.70;1.00;;;;;;4933903;29;20481;-49
2023/01/03 01:55:43;;;;;;;9.37;3.63;;;5.60;1.00;;;;;;4945315;28;21014;-49
2023/01/03 01:58:11;;;;;;;18.10;3.40;;;5.70;1.00;;;;;;4952902;28;20452;-49
2023/01/03 02:00:39;;;;;;;10.30;2.90;;;5.60;1.00;;;;;;4953250;28;20401;-49
2023/01/03 02:03:05;;;;;;;12.43;3.40;;;5.50;1.00;;;;;;4953182;28;20584;-49
2023/01/03 02:05:34;;;;;;;15.27;3.47;;;5.50;1.00;;;;;;4952605;28;21351;-55
2023/01/03 02:08:00;;;;;;;12.63;4.30;;;5.50;1.00;;;;;;4952140;28;20252;-49
2023/01/03 02:10:57;;;;;;;10.10;3.40;;;5.50;1.00;;;;;;4953680;29;20484;-49
2023/01/03 02:13:59;;;;;;;8.20;3.93;;;5.50;1.00;;;;;;4952401;29;20429;-49
2023/01/03 02:16:25;;;;;;;8.60;3.20;;;5.50;1.00;;;;;;4953383;28;20452;-50
2023/01/03 02:19:09;;;;;;;10.70;3.27;;;5.50;1.00;;;;;;4956497;29;20433;-49
2023/01/03 02:21:47;;;;;;;13.07;3.50;;;5.50;1.00;;;;;;4936360;29;20242;-49
2023/01/03 02:24:19;;;;;;;9.50;3.80;;;5.40;1.00;;;;;;4937637;29;20405;-49
2023/01/03 02:27:15;;;;;;;10.03;4.00;;;5.30;1.00;;;;;;4955821;28;20472;-49
2023/01/03 02:29:59;;;;;;;15.07;4.83;;;5.30;1.00;;;;;;4952928;29;20425;-50
2023/01/03 02:33:02;;;;;;;8.20;3.80;;;5.30;1.00;;;;;;4956297;29;20480;-49
2023/01/03 02:35:56;;;;;;;9.93;4.20;;;5.20;1.00;;;;;;4955013;28;20440;-49
2023/01/03 02:38:46;;;;;;;9.77;3.60;;;5.20;1.00;;;;;;4945772;28;20452;-49
2023/01/03 02:41:26;;;;;;;14.67;4.23;;;5.20;1.00;;;;;;4956079;29;20479;-49
2023/01/03 02:44:03;;;;;;;9.93;3.53;;;5.20;1.00;;;;;;4956300;29;20448;-49
2023/01/03 02:46:44;;;;;;;10.50;3.57;;;5.20;1.00;;;;;;4954333;28;20480;-49
2023/01/03 02:49:33;;;;;;;15.80;4.17;;;5.10;1.00;;;;;;4924131;29;20542;-50
2023/01/03 02:52:02;;;;;;;7.47;4.00;;;5.10;1.00;;;;;;4950227;29;21014;-49
2023/01/03 02:54:39;;;;;;;9.13;4.00;;;5.10;1.00;;;;;;4955066;28;20445;-49
2023/01/03 02:57:18;;;;;;;6.60;4.20;;;5.10;1.00;;;;;;4940897;29;20429;-50
2023/01/03 02:59:46;;;;;;;17.30;5.40;;;5.00;1.00;;;;;;4955611;29;20436;-49
2023/01/03 03:02:13;;;;;;;7.53;3.90;;;5.00;1.00;;;;;;4955767;29;20983;-49
2023/01/03 03:04:41;;;;;;;9.87;4.30;;;5.00;1.00;;;;;;4945886;28;21353;-49
2023/01/03 03:07:08;;;;;;;7.50;4.43;;;4.90;1.00;;;;;;4955750;28;20578;-49
2023/01/03 03:13:12;;;;;;;9.43;4.50;;;4.90;1.00;;;;;;4955644;29;21066;-49
2023/01/03 03:15:09;;;;;;;8.17;4.40;;;4.90;1.00;;;;;;4954076;28;20531;-49
2023/01/03 03:17:35;;;;;;;11.07;4.87;;;4.90;1.00;;;;;;4955591;28;20418;-49
2023/01/03 03:25:44;;;;;;;20.13;5.50;;;4.80;1.00;;;;;;4941640;28;20537;-49
2023/01/03 03:31:10;;;;;;;16.80;5.20;;;4.70;1.00;;;;;;4949348;29;20480;-49
2023/01/03 03:33:44;;;;;;;8.17;4.63;;;4.70;1.00;;;;;;4955108;29;20417;-49
2023/01/03 03:36:39;;;;;;;14.77;5.70;;;4.60;1.00;;;;;;4954611;28;20456;-49
2023/01/03 03:44:59;;;;;;;13.83;4.80;;;4.60;1.00;;;;;;4949572;29;20449;-49
2023/01/03 03:44:59;;;;;;;9.70;4.60;;;4.50;1.00;;;;;;4948287;28;20460;-50
2023/01/03 03:47:47;;;;;;;10.37;4.57;;;4.50;1.00;;;;;;4953301;28;20492;-49
2023/01/03 03:50:43;;;;;;;13.27;4.50;;;4.50;1.00;;;;;;4954215;29;21046;-49
2023/01/03 03:53:11;;;;;;;11.47;4.60;;;4.50;1.00;;;;;;4937315;29;20453;-49
2023/01/03 03:55:46;;;;;;;7.63;4.30;;;4.40;1.00;;;;;;4952985;28;20444;-49
2023/01/03 03:58:17;;;;;;;9.50;5.13;;;4.40;1.00;;;;;;4954064;28;20456;-49
2023/01/03 04:00:44;;;;;;;14.17;5.47;;;4.30;1.00;;;;;;4953613;29;20441;-49
2023/01/03 04:03:12;;;;;;;10.90;4.43;;;4.20;1.00;;;;;;4954309;29;20481;-49
2023/01/03 04:05:42;;;;;;;8.73;5.00;;;4.20;5.80;;;;;;4947756;28;20454;-49
2023/01/03 04:08:09;;;;;;;10.60;4.97;;;4.20;15.00;;;;;;4946431;29;20476;-49
2023/01/03 04:10:35;;;;;;;10.03;5.03;;;4.10;22.70;;;;;;4955481;29;20433;-50
2023/01/03 04:13:00;;;;;;;10.63;5.33;;;4.10;58.50;;;;;;4954235;29;20537;-49
2023/01/03 04:15:26;;;;;;;14.93;6.27;;;4.10;81.30;;;;;;4952587;28;20505;-49
2023/01/03 04:17:52;;;;;;;10.90;5.60;;;4.10;99.90;;;;;;4962902;28;20189;-50
2023/01/03 04:20:18;;;;;;;13.70;6.80;;;4.10;99.90;;;;;;4958114;28;20182;-49
2023/01/03 04:22:43;;;;;;;14.13;6.07;;;4.00;99.90;;;;;;4954661;29;20229;-49
2023/01/03 04:25:09;;;;;;;13.90;5.93;;;4.00;99.90;;;;;;4953559;28;21222;-49
2023/01/03 04:27:35;;;;;;;17.53;6.70;;;4.10;99.90;;;;;;4954290;28;20201;-49
2023/01/03 04:30:00;;;;;;;20.00;7.00;;;4.10;99.90;;;;;;4944552;29;20205;-50
2023/01/03 04:32:26;;;;;;;12.37;6.20;;;4.10;99.90;;;;;;4952792;28;20541;-50
2023/01/03 04:34:51;;;;;;;15.70;5.90;;;4.10;99.90;;;;;;4947185;29;20192;-50
2023/01/03 04:37:17;;;;;;;16.43;7.40;;;4.10;99.90;;;;;;4934966;28;20205;-50
2023/01/03 04:39:43;;;;;;;16.30;7.17;;;4.20;99.90;;;;;;4927973;28;20190;-49
2023/01/03 04:44:53;;;;;;;16.30;7.07;;;4.00;99.90;;;;;;4936928;29;20212;-50
2023/01/03 04:47:19;;;;;;;18.10;7.10;;;4.00;99.90;;;;;;4934297;28;21474;-50
2023/01/03 04:49:46;;;;;;;16.03;7.03;;;3.90;99.90;;;;;;4933456;29;20182;-50
2023/01/03 04:52:13;;;;;;;16.13;8.10;;;3.90;99.90;;;;;;4934052;29;20245;-50
2023/01/03 04:54:39;;;;;;;13.33;8.10;;;3.90;99.90;;;;;;4936305;29;20501;-51
2023/01/03 04:57:05;;;;;;;13.00;7.63;;;4.00;99.90;;;;;;4950625;28;20456;-51
2023/01/03 04:59:30;;;;;;;16.57;7.67;;;4.00;99.90;;;;;;4953657;29;20437;-51
2023/01/03 05:01:56;;;;;;;14.20;8.03;;;3.90;99.90;;;;;;4952526;29;20197;-50
2023/01/03 05:04:22;;;;;;;16.53;7.50;;;4.00;99.90;;;;;;4953065;28;20201;-51
2023/01/03 05:06:47;;;;;;;16.10;7.50;;;3.90;99.90;;;;;;4952451;29;20245;-51
2023/01/03 05:09:13;;;;;;;17.00;7.97;;;3.90;99.90;;;;;;4952069;28;20220;-50
2023/01/03 05:11:38;;;;;;;11.70;7.33;;;3.90;99.90;;;;;;4953026;29;20647;-52
2023/01/03 05:14:04;;;;;;;13.07;6.17;;;3.90;99.90;;;;;;4953691;29;20180;-50
2023/01/03 05:16:29;;;;;;;11.40;7.30;;;3.90;99.90;;;;;;4936009;29;20200;-50
2023/01/03 05:18:55;;;;;;;14.43;8.23;;;3.90;99.90;;;;;;4953479;29;20192;-51
2023/01/03 05:26:53;;;;;;;14.20;7.90;;;3.90;99.90;;;;;;4952698;28;20492;-51
2023/01/03 05:29:20;;;;;;;16.03;7.63;;;3.80;99.90;;;;;;4953055;29;20417;-51
2023/01/03 05:31:46;;;;;;;13.10;7.70;;;3.80;99.90;;;;;;4952439;29;20209;-50
2023/01/03 05:34:11;;;;;;;18.73;7.20;;;3.70;99.90;;;;;;4953446;29;20401;-51
2023/01/03 05:36:37;;;;;;;18.77;8.17;;;3.70;99.90;;;;;;4935276;29;20190;-51
2023/01/03 05:39:03;;;;;;;12.73;7.57;;;3.70;99.90;;;;;;4950944;28;20204;-50
2023/01/03 05:42:14;;;;;;;20.53;8.13;;;3.70;99.90;;;;;;4953225;29;20166;-50
2023/01/03 05:44:14;;;;;;;14.00;8.30;;;3.70;99.90;;;;;;4941625;29;20461;-50
2023/01/03 05:46:40;;;;;;;15.70;7.53;;;3.70;99.90;;;;;;4953184;29;20819;-50
2023/01/03 05:49:06;;;;;;;16.93;8.03;;;3.70;99.90;;;;;;4952719;29;20193;-50
2023/01/03 05:51:32;;;;;;;15.73;7.63;;;3.60;99.90;;;;;;4955931;28;20200;-50
2023/01/03 05:53:57;;;;;;;19.23;8.37;;;3.70;99.90;;;;;;4958644;28;20188;-50
2023/01/03 05:56:23;;;;;;;14.47;7.60;;;3.60;99.90;;;;;;4959281;29;20671;-51
2023/01/03 05:58:48;;;;;;;14.77;7.90;;;3.60;99.90;;;;;;4958211;29;20210;-50
2023/01/03 06:01:15;;;;;;;13.43;7.37;;;3.60;99.90;;;;;;4957922;28;20272;-51
2023/01/03 06:03:45;;;;;;;12.90;8.03;;;3.50;99.90;;;;;;4958447;28;20584;-50
2023/01/03 06:06:12;;;;;;;16.83;8.00;;;3.50;99.90;;;;;;4957120;28;20434;-50
2023/01/03 06:08:38;;;;;;;19.23;7.80;;;3.40;99.90;;;;;;4959406;29;20457;-52
2023/01/03 06:11:08;;;;;;;13.10;7.87;;;3.40;99.90;;;;;;4958070;29;20456;-50
2023/01/03 06:13:34;;;;;;;17.00;8.40;;;3.40;99.90;;;;;;4959246;29;20931;-51
2023/01/03 06:18:55;;;;;;;20.33;9.33;;;3.40;99.90;;;;;;4957242;28;20244;-51
2023/01/03 06:21:21;;;;;;;16.93;8.60;;;3.40;99.90;;;;;;4959246;29;20591;-51
2023/01/03 06:23:46;;;;;;;15.00;9.30;;;3.40;99.90;;;;;;4958163;29;20174;-51
2023/01/03 06:26:16;;;;;;;21.20;10.20;;;3.40;99.90;;;;;;4959220;29;20158;-51
2023/01/03 06:28:42;;;;;;;22.80;9.73;;;3.40;99.90;;;;;;4949393;29;20212;-51
2023/01/03 06:31:08;;;;;;;20.73;9.57;;;3.40;99.90;;;;;;4958997;28;20429;-50
2023/01/03 06:33:34;;;;;;;17.13;9.43;;;3.40;99.90;;;;;;4958057;29;20193;-51
2023/01/03 06:36:08;;;;;;;18.00;9.50;;;3.50;99.90;;;;;;4958131;28;20264;-50
2023/01/03 06:38:34;;;;;;;19.17;10.37;;;3.40;99.90;;;;;;4958047;28;20213;-49
2023/01/03 06:41:00;;;;;;;16.03;10.00;;;3.40;99.90;;;;;;4958676;29;20425;-49
2023/01/03 06:43:26;;;;;;;21.40;9.93;;;3.40;99.90;;;;;;4970161;28;20491;-50
2023/01/03 06:54:09;;;;;;;21.50;10.43;;;3.30;99.90;;;;;;4957670;28;20545;-49
2023/01/03 06:56:34;;;;;;;22.53;10.10;;;3.40;99.90;;;;;;4957971;28;20487;-50
2023/01/03 06:59:00;;;;;;;17.23;10.03;;;3.40;99.90;;;;;;4957983;28;20477;-50
2023/01/03 07:01:26;;;;;;;18.20;10.53;;;3.40;99.90;;;;;;4958533;28;20181;-50
2023/01/03 07:03:51;;;;;;;23.90;10.33;;;3.40;99.90;;;;;;4954375;28;20265;-50
2023/01/03 07:06:17;;;;;;;26.03;10.53;;;3.50;99.90;;;;;;4955735;29;20304;-50
2023/01/03 07:08:42;;;;;;;17.23;9.90;;;3.50;99.90;;;;;;4955343;29;20256;-49
2023/01/03 07:11:08;;;;;;;20.43;9.90;;;3.40;99.90;;;;;;4954998;29;20217;-49
2023/01/03 07:16:19;;;;;;;25.43;9.40;;;3.50;99.90;;;;;;4954157;28;20898;-49
2023/01/03 07:18:46;;;;;;;19.23;9.87;;;3.60;99.90;;;;;;4955012;28;20950;-49
2023/01/03 07:21:11;;;;;;;19.20;9.17;;;3.50;99.90;;;;;;4955359;29;20480;-49
2023/01/03 07:23:37;;;;;;;18.13;9.00;;;3.60;99.90;;;;;;4954769;29;20931;-51
2023/01/03 07:26:04;;;;;;;18.30;9.50;;;3.50;99.90;;;;;;4954781;29;20189;-49
2023/01/03 07:28:29;;;;;;;12.63;8.80;;;3.50;99.90;;;;;;4954570;29;20412;-49
2023/01/03 07:31:00;;;;;;;14.57;8.10;;;3.60;99.90;;;;;;4954575;28;20456;-49
2023/01/03 07:33:25;;;;;;;22.33;9.10;;;3.50;99.90;;;;;;4954164;28;20189;-49
2023/01/03 07:35:51;;;;;;;14.90;8.47;;;3.50;92.60;;;;;;4953967;28;20445;-49
2023/01/03 07:38:17;;;;;;;16.60;7.90;;;3.50;76.00;;;;;;4955006;28;20182;-48
2023/01/03 07:40:43;;;;;;;14.80;8.23;;;3.50;47.30;;;;;;4954225;28;20711;-49
2023/01/03 07:45:55;;;;;;;19.33;8.53;;;3.50;22.50;;;;;;4954019;29;20464;-49
2023/01/03 07:48:20;;;;;;;18.83;8.80;;;3.50;15.60;;;;;;4954950;29;20468;-50
2023/01/03 07:50:46;;;;;;;17.40;8.63;;;3.40;8.20;;;;;;4955076;29;20245;-49
2023/01/03 07:53:15;;;;;;;18.97;8.83;;;3.50;1.00;;;;;;4951181;28;20645;-49
2023/01/03 07:55:41;;;;;;;11.73;7.97;;;3.50;1.00;;;;;;4953710;29;20213;-50
2023/01/03 07:58:07;;;;;;;22.80;9.40;;;3.50;1.00;;;;;;4953413;29;20990;-49
2023/01/03 08:00:32;;;;;;;17.90;8.50;;;3.50;1.00;;;;;;4952122;28;20453;-49
2023/01/03 08:02:58;;;;;;;19.07;8.40;;;3.50;1.00;;;;;;4953061;28;20190;-49
2023/01/03 08:05:24;;;;;;;19.50;8.70;;;3.50;1.00;;;;;;4953830;29;20196;-49
2023/01/03 08:07:51;;;;;;;19.93;9.43;;;3.50;1.00;;;;;;4936375;28;20210;-48
2023/01/03 08:13:17;;;;;;;20.30;9.60;;;3.60;1.00;;;;;;4952335;28;20460;-48
2023/01/03 08:15:56;;;;;;;21.17;9.60;;;3.60;1.00;;;;;;4945321;29;20441;-49
2023/01/03 08:18:26;;;;;;;18.67;9.93;;;3.60;1.00;;;;;;4953564;29;20445;-49
2023/01/03 08:20:55;;;;;;;17.47;9.80;;;3.50;4.50;;;;;;4954024;29;20788;-47
2023/01/03 08:23:23;;;;;;;16.33;9.70;;;3.50;22.20;;;;;;4952347;29;20515;-47
2023/01/03 08:25:49;;;;;;;25.80;9.97;;;3.60;35.80;;;;;;4954495;29;20421;-48
2023/01/03 08:28:14;;;;;;;28.90;10.57;;;3.60;49.90;;;;;;4953470;29;20503;-49
2023/01/03 08:30:44;;;;;;;36.60;12.07;;;3.60;64.20;;;;;;4952974;29;20197;-49
2023/01/03 08:33:12;;;;;;;16.63;11.40;;;3.60;84.90;;;;;;4953034;29;20433;-48
2023/01/03 08:35:41;;;;;;;28.97;11.53;;;3.50;87.20;;;;;;4945306;28;20532;-48
2023/01/03 08:38:10;;;;;;;24.20;11.00;;;3.60;99.90;;;;;;4952308;28;20511;-49
2023/01/03 08:40:38;;;;;;;22.17;11.80;;;3.60;99.90;;;;;;4952807;28;21131;-49
2023/01/03 08:43:04;;;;;;;21.43;11.20;;;3.60;99.90;;;;;;4953932;29;20923;-49
2023/01/03 08:45:30;;;;;;;21.93;11.43;;;3.60;99.90;;;;;;4948478;28;20457;-50
2023/01/03 08:48:00;;;;;;;20.27;11.93;;;3.70;99.90;;;;;;4944487;29;21026;-50
2023/01/03 08:50:26;;;;;;;22.40;11.33;;;3.70;99.90;;;;;;4947773;29;20422;-49
2023/01/03 08:52:52;;;;;;;26.10;11.80;;;3.70;99.90;;;;;;4954174;28;20489;-49
2023/01/03 08:55:18;;;;;;;17.90;10.13;;;3.70;99.90;;;;;;4953421;28;20433;-49
2023/01/03 08:57:43;;;;;;;25.97;11.97;;;3.80;99.90;;;;;;4953481;29;20492;-49
2023/01/03 09:00:10;;;;;;;24.97;12.30;;;3.80;97.10;;;;;;4950669;28;20739;-52
2023/01/03 09:02:36;;;;;;;21.60;11.90;;;3.80;92.20;;;;;;4951359;29;20596;-50
2023/01/03 09:05:02;;;;;;;24.23;11.40;;;3.90;83.00;;;;;;4953489;29;20440;-49
2023/01/03 09:07:27;;;;;;;26.57;11.80;;;3.90;60.00;;;;;;4953687;28;20276;-49
2023/01/03 09:09:53;;;;;;;21.27;12.03;;;3.80;46.50;;;;;;4954391;29;20245;-50
2023/01/03 09:12:18;;;;;;;19.90;10.80;;;3.90;57.90;;;;;;4937337;29;20224;-48
2023/01/03 09:14:44;;;;;;;24.07;11.67;;;3.90;65.60;;;;;;4936794;29;20201;-48
2023/01/03 09:17:09;;;;;;;30.23;12.07;;;3.90;58.60;;;;;;4952659;29;20237;-53
2023/01/03 09:19:35;;;;;;;25.70;11.63;;;3.90;46.80;;;;;;4959360;28;20189;-47
2023/01/03 09:22:01;;;;;;;21.00;11.50;;;4.00;41.70;;;;;;4953357;28;20786;-48
2023/01/03 09:24:27;;;;;;;26.83;12.47;;;4.00;28.50;;;;;;4953644;28;20512;-48
2023/01/03 09:26:52;;;;;;;20.47;11.27;;;4.10;28.70;;;;;;4952841;28;20485;-48
2023/01/03 09:29:18;;;;;;;25.53;11.67;;;4.10;11.20;;;;;;4952902;29;20949;-48
2023/01/03 09:31:44;;;;;;;22.53;10.70;;;4.20;1.00;;;;;;4952748;29;20526;-48
2023/01/03 09:34:09;;;;;;;24.60;12.53;;;4.20;1.00;;;;;;4952638;29;20197;-48
2023/01/03 09:36:37;;;;;;;18.03;11.10;;;4.20;1.00;;;;;;4953204;29;20189;-49
2023/01/03 09:39:03;;;;;;;28.67;11.73;;;4.30;1.00;;;;;;4951351;28;20202;-49
2023/01/03 09:41:29;;;;;;;22.60;11.67;;;4.30;1.00;;;;;;4950647;29;20457;-49
2023/01/03 09:44:05;;;;;;;33.00;11.77;;;4.30;1.00;;;;;;4953376;28;20931;-49
2023/01/03 09:46:31;;;;;;;21.37;11.33;;;4.40;1.00;;;;;;4951793;29;20240;-49
2023/01/03 09:48:58;;;;;;;26.63;11.67;;;4.50;1.00;;;;;;4951366;28;20459;-49
2023/01/03 10:06:27;;;;;;;22.50;10.63;;;4.90;99.90;;;;;;4943293;29;20480;-49
2023/01/03 10:09:05;;;;;;;23.30;11.00;;;5.10;99.90;;;;;;4934832;29;20474;-48
2023/01/03 10:12:05;;;;;;;22.03;11.33;;;5.30;1.00;;;;;;4917405;29;20956;-49
2023/01/03 10:14:49;;;;;;;22.50;10.40;;;5.40;99.90;;;;;;4933873;29;20412;-49
2023/01/03 10:17:23;;;;;;;26.20;10.30;;;5.60;1.00;;;;;;4933743;29;20403;-49
2023/01/03 10:20:07;;;;;;;17.30;11.00;;;5.60;99.90;;;;;;4933714;29;20409;-49
2023/01/03 10:22:34;;;;;;;21.93;10.77;;;5.50;2.90;;;;;;4933385;29;20462;-49
2023/01/03 10:25:21;;;;;;;25.70;10.90;;;5.50;1.00;;;;;;4933830;29;20430;-48
2023/01/03 10:27:55;;;;;;;19.70;11.10;;;5.40;90.20;;;;;;4933966;29;21340;-49
2023/01/03 10:30:39;;;;;;;24.90;11.17;;;5.50;1.00;;;;;;4933784;29;20421;-49
2023/01/03 10:33:37;;;;;;;19.80;9.80;;;5.60;99.90;;;;;;4916939;29;21083;-49
2023/01/03 10:36:04;;;;;;;19.83;10.63;;;5.80;99.90;;;;;;4933675;29;20509;-49
2023/01/03 10:38:30;;;;;;;19.87;10.30;;;5.80;1.00;;;;;;4935891;29;20410;-49
2023/01/03 10:40:58;;;;;;;20.77;10.57;;;5.90;1.00;;;;;;4937106;29;20410;-49
2023/01/03 10:43:52;;;;;;;17.23;9.63;;;6.30;99.90;;;;;;4937156;29;20426;-48
2023/01/03 10:46:24;;;;;;;17.03;10.47;;;6.70;99.90;;;;;;4936498;29;20525;-49
2023/01/03 10:48:52;;;;;;;17.50;10.43;;;7.20;1.00;;;;;;4937186;29;20416;-49
2023/01/03 10:51:27;;;;;;;20.37;9.90;;;7.60;99.90;;;;;;4936871;29;20433;-49
2023/01/03 10:53:56;;;;;;;19.63;9.70;;;8.20;1.00;;;;;;4937209;29;20433;-49
2023/01/03 10:56:23;;;;;;;14.30;8.30;;;9.20;99.90;;;;;;4936943;29;20797;-48
2023/01/03 10:59:15;;;;;;;21.47;9.00;;;10.30;1.00;;;;;;4937009;29;20418;-49
2023/01/03 11:02:15;;;;;;;12.20;7.70;;;12.60;1.00;;;;;;4946614;29;20441;-49
2023/01/03 11:04:42;;;;;;;14.10;8.27;;;14.30;1.00;;;;;;4955810;29;20765;-49
2023/01/03 11:07:08;;;;;;;13.70;8.10;;;15.80;1.00;;;;;;4955987;29;21018;-49
2023/01/03 11:10:16;;;;;;;14.17;8.23;;;15.70;1.00;;;;;;4956022;29;20550;-49
2023/01/03 11:12:41;;;;;;;22.53;8.30;;;13.40;1.00;;;;;;4877664;29;20678;-49
2023/01/03 11:15:16;;;;;;;16.80;8.47;;;13.00;1.00;;;;;;4877829;29;20512;-49
2023/01/03 11:18:02;;;;;;;14.53;8.63;;;12.90;1.00;;;;;;4920136;28;20205;-49
2023/01/03 11:20:54;;;;;;;13.87;7.60;;;12.40;1.00;;;;;;4955564;29;20421;-49
2023/01/03 11:23:34;;;;;;;14.20;8.50;;;11.90;1.00;;;;;;4955656;29;20449;-49
2023/01/03 11:26:08;;;;;;;11.57;7.60;;;11.60;1.00;;;;;;4955538;28;20432;-48
2023/01/03 11:28:59;;;;;;;13.50;7.80;;;12.00;1.00;;;;;;4955662;29;20492;-49
2023/01/03 11:31:33;;;;;;;14.70;7.23;;;12.70;1.00;;;;;;4955444;29;20418;-49
2023/01/03 11:34:22;;;;;;;12.40;7.10;;;12.90;1.00;;;;;;4955410;29;20439;-50
2023/01/03 11:36:52;;;;;;;12.57;7.60;;;12.30;1.00;;;;;;4954875;29;20562;-49
2023/01/03 11:39:30;;;;;;;13.10;6.80;;;12.10;1.00;;;;;;4955187;28;20461;-49
2023/01/03 11:42:01;;;;;;;15.37;7.33;;;11.90;1.00;;;;;;4955203;29;20896;-49
2023/01/03 11:44:50;;;;;;;10.23;6.13;;;12.10;1.00;;;;;;4955448;29;20573;-49
2023/01/03 11:47:53;;;;;;;11.53;6.97;;;11.90;1.00;;;;;;4954564;29;20521;-49
2023/01/03 11:50:56;;;;;;;10.53;6.20;;;11.90;1.00;;;;;;4954850;28;20424;-48
2023/01/03 11:53:42;;;;;;;11.83;5.90;;;11.80;1.00;;;;;;4943668;28;20461;-48
2023/01/03 11:56:19;;;;;;;9.47;5.83;;;11.90;1.00;;;;;;4954927;28;20484;-48
2023/01/03 11:59:07;;;;;;;9.73;5.67;;;11.30;1.00;;;;;;4955441;29;20967;-49
2023/01/03 12:01:35;;;;;;;8.57;5.90;;;11.10;1.00;;;;;;4954622;29;20432;-49
2023/01/03 12:04:15;;;;;;;13.60;5.90;;;11.20;1.00;;;;;;4955015;29;20472;-49
2023/01/03 12:07:18;;;;;;;15.20;6.10;;;11.10;1.00;;;;;;4955001;29;20507;-49
2023/01/03 12:10:00;;;;;;;9.80;6.10;;;10.80;1.00;;;;;;4955035;29;20421;-48
2023/01/03 12:12:32;;;;;;;11.77;5.80;;;11.20;1.00;;;;;;4955673;29;20402;-48
2023/01/03 12:15:02;;;;;;;9.83;5.80;;;11.40;1.00;;;;;;4954766;29;20413;-48
2023/01/03 12:17:43;;;;;;;11.20;5.13;;;11.70;1.00;;;;;;4953853;29;20967;-48
2023/01/03 12:20:20;;;;;;;9.00;4.70;;;11.60;1.00;;;;;;4954449;28;20429;-48
2023/01/03 12:22:58;;;;;;;8.10;5.40;;;11.70;1.00;;;;;;4954571;29;20473;-48
2023/01/03 12:25:38;;;;;;;10.87;5.10;;;12.30;1.00;;;;;;4954413;28;20945;-47
2023/01/03 12:28:10;;;;;;;12.20;5.27;;;13.20;1.00;;;;;;4954367;29;20535;-48
2023/01/03 12:31:05;;;;;;;10.17;6.00;;;14.40;1.00;;;;;;4954208;29;20468;-48
2023/01/03 12:33:53;;;;;;;10.40;5.27;;;16.00;1.00;;;;;;4953751;29;20440;-48
2023/01/03 12:36:24;;;;;;;10.03;5.50;;;17.40;1.00;;;;;;4954225;29;20433;-48
2023/01/03 12:39:12;;;;;;;12.73;5.37;;;18.30;1.00;;;;;;4954290;29;20410;-49
2023/01/03 12:41:48;;;;;;;10.73;5.17;;;19.20;1.00;;;;;;4954068;29;20421;-49
2023/01/03 12:44:31;;;;;;;10.47;4.77;;;19.70;1.00;;;;;;4953856;28;20982;-48
2023/01/03 12:46:57;;;;;;;11.00;5.13;;;20.10;1.00;;;;;;4954162;29;20829;-48
2023/01/03 12:49:47;;;;;;;11.43;5.03;;;20.40;1.00;;;;;;4936594;29;20437;-49
2023/01/03 12:52:15;;;;;;;13.80;5.10;;;20.80;1.00;;;;;;4953932;29;20429;-49
2023/01/03 12:54:41;;;;;;;7.63;4.63;;;21.00;1.00;;;;;;4954145;29;20416;-49
2023/01/03 12:57:18;;;;;;;8.00;5.40;;;21.40;1.00;;;;;;4936603;29;20441;-48
2023/01/03 13:00:10;;;;;;;7.93;5.87;;;20.70;1.00;;;;;;4953479;28;20563;-49
2023/01/03 13:02:45;;;;;;;9.73;5.83;;;19.90;1.00;;;;;;4953446;28;20922;-48
2023/01/03 13:05:26;;;;;;;9.30;6.43;;;19.50;1.00;;;;;;4936457;29;20413;-48
2023/01/03 13:08:05;;;;;;;8.47;6.27;;;19.60;1.00;;;;;;4953851;28;20473;-49
2023/01/03 13:10:34;;;;;;;10.50;5.67;;;18.60;1.00;;;;;;4954351;29;20429;-48
2023/01/03 13:13:01;;;;;;;9.50;5.90;;;17.40;1.00;;;;;;4953752;29;20827;-49
2023/01/03 13:15:32;;;;;;;11.33;6.20;;;16.40;1.00;;;;;;4953857;29;20852;-48
2023/01/03 13:18:16;;;;;;;11.83;6.60;;;15.50;1.00;;;;;;4953500;29;20911;-48
2023/01/03 13:20:42;;;;;;;12.10;6.27;;;14.90;1.00;;;;;;4953529;28;20448;-48
2023/01/03 13:23:29;;;;;;;9.97;5.57;;;14.60;1.00;;;;;;4953419;29;20484;-48
2023/01/03 13:26:24;;;;;;;10.57;5.87;;;14.90;1.00;;;;;;4953674;28;20244;-48
2023/01/03 13:28:50;;;;;;;13.43;6.03;;;15.50;1.00;;;;;;4952969;29;20528;-48
2023/01/03 13:31:16;;;;;;;14.43;6.93;;;16.50;1.00;;;;;;4953465;29;20425;-48
2023/01/03 13:33:52;;;;;;;14.47;6.43;;;17.10;1.00;;;;;;4953633;29;21062;-48
2023/01/03 13:36:19;;;;;;;11.43;6.40;;;16.70;1.00;;;;;;4953396;29;20176;-48
2023/01/03 13:38:44;;;;;;;10.83;5.90;;;15.30;1.00;;;;;;4953112;29;20473;-48
2023/01/03 13:41:35;;;;;;;9.87;6.23;;;13.70;1.00;;;;;;4943906;28;20457;-47
2023/01/03 13:44:15;;;;;;;11.50;6.97;;;12.30;1.00;;;;;;4953231;29;20535;-48
2023/01/03 13:46:41;;;;;;;14.00;7.07;;;11.40;1.00;;;;;;4952870;29;20531;-48
2023/01/03 13:49:15;;;;;;;11.57;7.10;;;10.90;1.00;;;;;;4936317;29;20413;-47
2023/01/03 13:51:46;;;;;;;10.77;6.43;;;10.40;1.00;;;;;;4953363;29;20433;-48
2023/01/03 13:54:11;;;;;;;9.40;6.30;;;9.80;1.00;;;;;;4953497;28;20911;-47
2023/01/03 13:56:43;;;;;;;20.77;7.33;;;9.40;1.00;;;;;;4953201;29;20414;-47
2023/01/03 13:59:17;;;;;;;12.03;6.93;;;9.00;1.00;;;;;;4953757;28;20513;-47
2023/01/03 14:01:58;;;;;;;12.77;6.30;;;8.90;1.00;;;;;;4954000;29;20515;-47
2023/01/03 14:04:30;;;;;;;13.87;6.97;;;9.00;1.00;;;;;;4936994;29;20436;-47
2023/01/03 14:07:37;;;;;;;15.33;7.30;;;8.90;1.00;;;;;;4953323;29;20449;-47
2023/01/03 14:10:05;;;;;;;10.97;7.30;;;8.90;1.00;;;;;;4901024;29;20527;-47
2023/01/03 14:12:56;;;;;;;10.50;6.33;;;8.50;1.00;;;;;;4936450;29;20413;-48
2023/01/03 14:15:24;;;;;;;13.63;7.30;;;8.20;1.00;;;;;;4937783;29;21047;-47